Time;durP1;ratioP1;P1;durP2;ratioP2;P2;SDS_P1;SDS_P2;PMS_P1;PMS_P2;Temp;Humidity;BMP_temperature;BMP_pressure;BME280_temperature;BME280_humidity;BME280_pressure;Samples;Min_cycle;Max_cycle;Signal;HPM_P1;HPM_P2
2021/08/23 00:02:03;;;;;;;20.73;13.95;;;;;;;;;;5035805;28;20032;-70
2021/08/23 00:04:31;;;;;;;23.30;15.05;;;;;;;;;;5035444;28;20037;-70
2021/08/23 00:06:57;;;;;;;26.30;14.93;;;;;;;;;;5036156;28;20380;-70
2021/08/23 00:09:23;;;;;;;25.98;14.95;;;;;;;;;;5034432;28;20034;-70
2021/08/23 00:11:49;;;;;;;26.73;15.05;;;;;;;;;;5049097;28;20453;-70
2021/08/23 00:14:15;;;;;;;25.77;14.80;;;;;;;;;;5035777;28;20032;-70
2021/08/23 00:16:41;;;;;;;26.95;13.80;;;;;;;;;;5036076;28;20087;-70
2021/08/23 00:19:07;;;;;;;26.52;14.93;;;;;;;;;;5034864;28;20029;-70
2021/08/23 00:21:41;;;;;;;30.27;15.77;;;;;;;;;;5042794;28;20549;-70
2021/08/23 00:24:17;;;;;;;28.30;16.45;;;;;;;;;;5019364;28;20025;-71
2021/08/23 00:26:43;;;;;;;30.33;15.13;;;;;;;;;;5033729;28;20100;-70
2021/08/23 00:29:09;;;;;;;21.05;13.90;;;;;;;;;;5035205;28;20033;-70
2021/08/23 00:31:36;;;;;;;20.80;12.88;;;;;;;;;;5036174;28;20024;-69
2021/08/23 00:34:02;;;;;;;30.13;14.13;;;;;;;;;;5035297;28;20030;-70
2021/08/23 00:36:28;;;;;;;22.10;13.00;;;;;;;;;;5034256;28;20079;-70
2021/08/23 00:38:54;;;;;;;26.67;15.07;;;;;;;;;;5033708;28;20104;-70
2021/08/23 00:41:20;;;;;;;22.85;14.50;;;;;;;;;;5047774;28;20032;-70
2021/08/23 00:43:46;;;;;;;27.48;15.50;;;;;;;;;;5036767;28;20388;-70
2021/08/23 00:46:12;;;;;;;24.75;14.02;;;;;;;;;;5035014;28;20033;-70
2021/08/23 00:48:38;;;;;;;23.05;12.82;;;;;;;;;;5033546;28;20017;-70
2021/08/23 00:51:04;;;;;;;22.75;11.70;;;;;;;;;;5042313;28;20044;-70
2021/08/23 00:53:30;;;;;;;22.45;12.55;;;;;;;;;;5033021;28;20026;-70
2021/08/23 00:55:56;;;;;;;17.77;11.52;;;;;;;;;;5034434;28;20036;-70
2021/08/23 00:58:22;;;;;;;21.13;13.00;;;;;;;;;;5034965;28;20048;-70
2021/08/23 01:00:54;;;;;;;22.20;14.07;;;;;;;;;;5035140;28;20486;-70
2021/08/23 01:03:25;;;;;;;23.30;14.88;;;;;;;;;;5033470;28;20363;-70
2021/08/23 01:05:50;;;;;;;24.55;14.10;;;;;;;;;;5032418;28;20044;-70
2021/08/23 01:08:37;;;;;;;22.42;14.40;;;;;;;;;;5032701;28;20036;-70
2021/08/23 01:11:05;;;;;;;23.58;13.90;;;;;;;;;;5045798;28;20074;-70
2021/08/23 01:13:31;;;;;;;;;;;;;;;;;;5038535;28;20029;-68
2021/08/23 01:15:57;;;;;;;23.65;13.98;;;;;;;;;;5031458;28;20017;-62
2021/08/23 01:18:23;;;;;;;23.90;15.23;;;;;;;;;;5033452;28;20029;-62
2021/08/23 01:20:51;;;;;;;21.98;12.20;;;;;;;;;;5039848;28;20135;-62
2021/08/23 01:23:18;;;;;;;27.50;14.50;;;;;;;;;;5031610;28;20017;-62
2021/08/23 01:25:45;;;;;;;24.47;13.97;;;;;;;;;;5034143;28;20053;-62
2021/08/23 01:28:23;;;;;;;23.77;13.87;;;;;;;;;;5032652;28;20018;-62
2021/08/23 01:30:49;;;;;;;;;;;;;;;;;;5035318;28;20044;-60
2021/08/23 01:33:15;;;;;;;24.58;12.52;;;;;;;;;;5034577;28;19909;-61
2021/08/23 01:35:41;;;;;;;22.65;13.93;;;;;;;;;;5032454;28;20026;-62
2021/08/23 01:38:07;;;;;;;22.88;13.55;;;;;;;;;;5033927;28;20437;-62
2021/08/23 01:40:33;;;;;;;26.48;12.63;;;;;;;;;;5040684;28;20067;-61
2021/08/23 01:42:59;;;;;;;18.42;9.88;;;;;;;;;;5042028;28;20056;-61
2021/08/23 01:45:25;;;;;;;25.80;14.35;;;;;;;;;;5034406;28;20435;-61
2021/08/23 01:47:51;;;;;;;20.75;12.82;;;;;;;;;;5032253;28;20052;-62
2021/08/23 01:50:17;;;;;;;18.35;12.05;;;;;;;;;;5033103;28;20079;-62
2021/08/23 01:52:43;;;;;;;20.88;12.45;;;;;;;;;;5034182;28;20066;-62
2021/08/23 01:55:09;;;;;;;26.92;12.70;;;;;;;;;;5032882;28;20068;-62
2021/08/23 01:57:35;;;;;;;21.35;13.30;;;;;;;;;;5033646;28;20036;-62
2021/08/23 02:00:01;;;;;;;20.02;12.45;;;;;;;;;;5018253;28;20030;-62
2021/08/23 02:02:27;;;;;;;20.23;12.32;;;;;;;;;;5032139;28;20026;-62
2021/08/23 02:04:53;;;;;;;21.42;11.20;;;;;;;;;;5034197;28;20033;-62
2021/08/23 02:07:19;;;;;;;20.45;11.00;;;;;;;;;;5031956;28;20032;-62
2021/08/23 02:09:45;;;;;;;13.82;8.52;;;;;;;;;;5034445;28;20041;-61
2021/08/23 02:12:12;;;;;;;20.65;11.35;;;;;;;;;;5048486;28;20039;-62
2021/08/23 02:14:38;;;;;;;20.27;12.50;;;;;;;;;;5031666;28;20026;-62
2021/08/23 02:17:04;;;;;;;18.83;11.55;;;;;;;;;;5033938;28;20611;-63
2021/08/23 02:19:30;;;;;;;17.85;10.70;;;;;;;;;;5033437;28;20076;-62
2021/08/23 02:21:56;;;;;;;16.17;9.93;;;;;;;;;;5040365;28;20045;-62
2021/08/23 02:24:23;;;;;;;19.95;11.02;;;;;;;;;;5033729;28;20542;-63
2021/08/23 02:26:49;;;;;;;16.83;9.32;;;;;;;;;;5035824;28;20025;-62
2021/08/23 02:29:15;;;;;;;18.65;10.88;;;;;;;;;;5037206;28;20109;-62
2021/08/23 02:31:41;;;;;;;17.00;10.18;;;;;;;;;;5038346;28;20440;-62
2021/08/23 02:34:07;;;;;;;16.45;9.63;;;;;;;;;;5036550;28;20029;-61
2021/08/23 02:36:34;;;;;;;17.02;9.75;;;;;;;;;;5037700;28;20021;-61
2021/08/23 02:39:00;;;;;;;15.35;8.45;;;;;;;;;;5036128;28;20116;-61
2021/08/23 02:41:26;;;;;;;17.63;9.95;;;;;;;;;;5049874;28;20384;-61
2021/08/23 02:43:52;;;;;;;19.15;10.80;;;;;;;;;;5038609;28;20056;-62
2021/08/23 02:46:18;;;;;;;16.00;9.88;;;;;;;;;;5036134;28;20037;-62
2021/08/23 02:48:45;;;;;;;18.10;10.32;;;;;;;;;;5037009;28;20056;-63
2021/08/23 02:51:11;;;;;;;22.48;12.10;;;;;;;;;;5044280;28;20027;-62
2021/08/23 02:53:37;;;;;;;17.63;10.05;;;;;;;;;;5034820;28;20028;-62
2021/08/23 02:56:03;;;;;;;17.85;9.27;;;;;;;;;;5037507;28;20022;-63
2021/08/23 02:58:29;;;;;;;18.88;9.50;;;;;;;;;;5037195;28;20102;-63
2021/08/23 03:00:55;;;;;;;16.10;9.93;;;;;;;;;;5037803;28;20057;-62
2021/08/23 03:03:21;;;;;;;16.50;9.45;;;;;;;;;;5036791;28;20028;-62
2021/08/23 03:05:47;;;;;;;18.83;10.45;;;;;;;;;;5035072;28;20104;-62
2021/08/23 03:08:13;;;;;;;15.40;9.05;;;;;;;;;;5032520;28;20033;-62
2021/08/23 03:10:39;;;;;;;18.88;9.75;;;;;;;;;;5044815;28;20404;-62
2021/08/23 03:13:06;;;;;;;17.83;9.10;;;;;;;;;;5042846;28;20018;-62
2021/08/23 03:15:32;;;;;;;20.63;9.98;;;;;;;;;;5036762;28;20099;-62
2021/08/23 03:17:58;;;;;;;18.42;9.90;;;;;;;;;;5036220;28;20096;-62
2021/08/23 03:20:24;;;;;;;15.95;9.80;;;;;;;;;;5040874;28;20560;-62
2021/08/23 03:22:50;;;;;;;17.65;10.15;;;;;;;;;;5037666;28;20095;-62
2021/08/23 03:25:16;;;;;;;15.13;9.40;;;;;;;;;;5034949;28;20095;-62
2021/08/23 03:27:42;;;;;;;16.80;8.57;;;;;;;;;;5036700;28;20377;-62
2021/08/23 03:30:08;;;;;;;12.45;7.38;;;;;;;;;;5037576;28;20087;-62
2021/08/23 03:32:34;;;;;;;13.73;8.25;;;;;;;;;;5033676;28;20034;-62
2021/08/23 03:35:01;;;;;;;12.80;7.68;;;;;;;;;;5036807;28;20025;-62
2021/08/23 03:37:27;;;;;;;17.02;7.25;;;;;;;;;;5036425;28;20025;-62
2021/08/23 03:39:53;;;;;;;11.32;6.45;;;;;;;;;;5036473;28;20465;-62
2021/08/23 03:42:19;;;;;;;10.27;6.05;;;;;;;;;;5049559;28;20028;-63
2021/08/23 03:44:45;;;;;;;9.43;5.35;;;;;;;;;;5034137;28;20469;-62
2021/08/23 03:47:11;;;;;;;11.93;5.55;;;;;;;;;;5036542;28;20056;-62
2021/08/23 03:49:37;;;;;;;12.90;6.88;;;;;;;;;;5036003;28;20037;-62
2021/08/23 03:52:03;;;;;;;16.80;7.70;;;;;;;;;;5035778;28;20021;-62
2021/08/23 03:54:29;;;;;;;14.50;7.60;;;;;;;;;;5033870;28;20520;-63
2021/08/23 03:56:55;;;;;;;12.43;7.72;;;;;;;;;;5033762;28;20485;-62
2021/08/23 03:59:21;;;;;;;12.68;7.25;;;;;;;;;;5034001;28;20018;-62
2021/08/23 04:01:47;;;;;;;13.93;7.47;;;;;;;;;;5034515;28;20021;-62
2021/08/23 04:04:13;;;;;;;10.70;5.97;;;;;;;;;;5034297;28;20033;-60
2021/08/23 04:06:44;;;;;;;8.52;5.20;;;;;;;;;;5033951;28;20048;-60
2021/08/23 04:09:10;;;;;;;12.25;6.80;;;;;;;;;;5034151;28;20056;-60
2021/08/23 04:11:36;;;;;;;12.30;6.82;;;;;;;;;;5033691;28;20017;-61
2021/08/23 04:14:02;;;;;;;12.93;5.90;;;;;;;;;;5044610;28;20561;-60
2021/08/23 04:16:28;;;;;;;12.07;6.65;;;;;;;;;;5039722;28;20040;-60
2021/08/23 04:18:54;;;;;;;12.27;6.63;;;;;;;;;;5033267;28;20029;-60
2021/08/23 04:21:20;;;;;;;9.27;5.13;;;;;;;;;;5042698;28;20536;-65
2021/08/23 04:23:46;;;;;;;9.07;4.20;;;;;;;;;;5033476;28;20030;-61
2021/08/23 04:26:12;;;;;;;9.00;4.97;;;;;;;;;;5034852;28;20239;-61
2021/08/23 04:28:38;;;;;;;12.07;4.22;;;;;;;;;;5035474;28;20032;-60
2021/08/23 04:31:04;;;;;;;8.57;4.93;;;;;;;;;;5042717;28;20029;-61
2021/08/23 04:33:30;;;;;;;7.78;4.15;;;;;;;;;;5035681;28;20034;-61
2021/08/23 04:35:56;;;;;;;13.77;8.13;;;;;;;;;;5034223;28;20029;-61
2021/08/23 04:38:22;;;;;;;13.32;8.70;;;;;;;;;;5033322;28;20425;-60
2021/08/23 04:40:49;;;;;;;16.00;8.93;;;;;;;;;;5043722;28;20108;-60
2021/08/23 04:43:15;;;;;;;14.18;8.70;;;;;;;;;;5038411;28;20021;-60
2021/08/23 04:45:41;;;;;;;16.27;9.25;;;;;;;;;;5035337;28;20030;-60
2021/08/23 04:48:07;;;;;;;16.27;10.38;;;;;;;;;;5035001;28;20017;-61
2021/08/23 04:50:33;;;;;;;16.10;7.18;;;;;;;;;;5037365;28;20029;-61
2021/08/23 04:52:59;;;;;;;13.10;6.93;;;;;;;;;;5032133;28;20105;-61
2021/08/23 04:55:25;;;;;;;13.13;8.00;;;;;;;;;;5033364;28;20104;-61
2021/08/23 04:57:54;;;;;;;14.65;7.60;;;;;;;;;;5033594;28;20538;-61
2021/08/23 05:00:20;;;;;;;12.93;7.18;;;;;;;;;;5034487;28;20478;-61
2021/08/23 05:02:46;;;;;;;10.32;5.57;;;;;;;;;;5031711;28;20108;-61
2021/08/23 05:05:12;;;;;;;12.85;6.07;;;;;;;;;;5033726;28;20092;-60
2021/08/23 05:07:39;;;;;;;11.30;6.18;;;;;;;;;;5034966;28;20083;-61
2021/08/23 05:10:05;;;;;;;6.75;3.75;;;;;;;;;;5036372;28;20552;-61
2021/08/23 05:12:31;;;;;;;1.83;1.48;;;;;;;;;;5045638;28;20084;-61
2021/08/23 05:14:57;;;;;;;2.60;2.20;;;;;;;;;;5033359;28;20033;-61
2021/08/23 05:17:25;;;;;;;2.05;1.35;;;;;;;;;;5033218;28;20041;-61
2021/08/23 05:19:51;;;;;;;65.70;7.68;;;;;;;;;;5035493;28;20477;-61
2021/08/23 05:22:17;;;;;;;3.13;1.98;;;;;;;;;;5039026;28;20143;-61
2021/08/23 05:24:43;;;;;;;1.27;0.80;;;;;;;;;;5033855;28;20052;-61
2021/08/23 05:27:09;;;;;;;2.03;1.55;;;;;;;;;;5034689;28;20021;-61
2021/08/23 05:29:35;;;;;;;1.90;1.33;;;;;;;;;;5031642;28;20128;-61
2021/08/23 05:32:01;;;;;;;3.83;2.28;;;;;;;;;;5034890;28;20024;-61
2021/08/23 05:34:27;;;;;;;3.05;1.00;;;;;;;;;;5037276;28;20025;-61
2021/08/23 05:36:53;;;;;;;0.57;0.57;;;;;;;;;;5041070;28;20405;-61
2021/08/23 05:39:20;;;;;;;1.30;0.60;;;;;;;;;;5034471;28;20099;-61
2021/08/23 05:41:46;;;;;;;2.92;0.95;;;;;;;;;;5047406;28;20035;-61
2021/08/23 05:44:12;;;;;;;2.72;1.40;;;;;;;;;;5033995;28;20026;-60
2021/08/23 05:46:38;;;;;;;2.75;1.75;;;;;;;;;;5034007;28;20030;-61
2021/08/23 05:49:04;;;;;;;1.63;1.52;;;;;;;;;;5032317;28;20109;-61
2021/08/23 05:51:30;;;;;;;1.75;0.93;;;;;;;;;;5041176;28;20515;-61
2021/08/23 05:53:55;;;;;;;1.08;0.98;;;;;;;;;;5033877;28;20057;-61
2021/08/23 05:56:21;;;;;;;2.33;1.42;;;;;;;;;;5032930;28;20477;-61
2021/08/23 05:58:47;;;;;;;1.63;0.70;;;;;;;;;;5036897;28;20055;-61
2021/08/23 06:01:13;;;;;;;0.68;0.60;;;;;;;;;;5040105;28;20026;-61
2021/08/23 06:03:39;;;;;;;1.45;0.77;;;;;;;;;;5033983;28;20116;-61
2021/08/23 06:06:06;;;;;;;0.40;0.40;;;;;;;;;;5033969;28;20465;-61
2021/08/23 06:08:33;;;;;;;7.30;3.08;;;;;;;;;;5031539;28;20029;-61
2021/08/23 06:10:59;;;;;;;6.15;2.60;;;;;;;;;;5044640;28;20073;-61
2021/08/23 06:13:25;;;;;;;6.18;2.92;;;;;;;;;;5038220;28;20022;-59
2021/08/23 06:15:51;;;;;;;3.75;1.70;;;;;;;;;;5033527;28;20040;-61
2021/08/23 06:18:17;;;;;;;3.17;1.60;;;;;;;;;;5033674;28;20057;-59
2021/08/23 06:20:43;;;;;;;7.47;3.22;;;;;;;;;;5038751;28;20114;-60
2021/08/23 06:23:09;;;;;;;3.13;1.42;;;;;;;;;;5033198;28;20041;-59
2021/08/23 06:25:35;;;;;;;4.85;1.90;;;;;;;;;;5033483;28;20037;-59
2021/08/23 06:28:01;;;;;;;4.95;2.13;;;;;;;;;;5032535;28;20029;-59
2021/08/23 06:30:27;;;;;;;3.40;1.70;;;;;;;;;;5034357;28;20408;-59
2021/08/23 06:32:53;;;;;;;5.18;2.08;;;;;;;;;;5031633;28;20030;-59
2021/08/23 06:35:19;;;;;;;4.53;1.92;;;;;;;;;;5032773;28;20028;-59
2021/08/23 06:37:45;;;;;;;4.30;1.90;;;;;;;;;;5033260;28;20029;-59
2021/08/23 06:40:11;;;;;;;5.47;2.63;;;;;;;;;;5036027;28;20120;-59
2021/08/23 06:42:38;;;;;;;6.05;3.60;;;;;;;;;;5043097;28;20455;-58
2021/08/23 06:45:04;;;;;;;135.30;15.00;;;;;;;;;;5032287;28;20021;-59
2021/08/23 06:47:30;;;;;;;2.47;1.63;;;;;;;;;;5031578;28;20021;-59
2021/08/23 06:49:56;;;;;;;46.28;31.58;;;;;;;;;;5034649;28;20041;-59
2021/08/23 06:52:22;;;;;;;6.30;5.68;;;;;;;;;;5042575;28;20025;-58
2021/08/23 06:54:48;;;;;;;4.55;2.60;;;;;;;;;;5041953;28;20470;-57
2021/08/23 06:57:14;;;;;;;4.68;2.17;;;;;;;;;;5031540;28;20030;-58
2021/08/23 06:59:40;;;;;;;4.13;2.10;;;;;;;;;;5030738;28;20030;-59
2021/08/23 07:02:06;;;;;;;9.57;2.10;;;;;;;;;;5033611;28;20025;-59
2021/08/23 07:04:32;;;;;;;3.88;1.77;;;;;;;;;;5033250;28;20079;-59
2021/08/23 07:07:01;;;;;;;3.80;1.77;;;;;;;;;;5031815;28;20026;-58
2021/08/23 07:09:27;;;;;;;4.90;1.75;;;;;;;;;;5032741;28;20048;-59
2021/08/23 07:11:53;;;;;;;5.38;1.75;;;;;;;;;;5049882;28;20469;-59
2021/08/23 07:14:19;;;;;;;3.22;1.73;;;;;;;;;;5036321;28;20037;-59
2021/08/23 07:16:45;;;;;;;3.78;1.80;;;;;;;;;;5036055;28;20036;-59
2021/08/23 07:19:11;;;;;;;5.70;1.90;;;;;;;;;;5035068;28;20568;-59
2021/08/23 07:21:37;;;;;;;4.40;2.10;;;;;;;;;;5043869;28;20049;-59
2021/08/23 07:24:03;;;;;;;5.38;2.00;;;;;;;;;;5036813;28;20025;-59
2021/08/23 07:26:29;;;;;;;4.25;2.00;;;;;;;;;;5033942;28;20050;-59
2021/08/23 07:28:55;;;;;;;32.53;4.07;;;;;;;;;;5036254;28;20396;-59
2021/08/23 07:31:21;;;;;;;8.02;2.00;;;;;;;;;;5037439;28;20505;-58
2021/08/23 07:33:47;;;;;;;5.15;1.90;;;;;;;;;;5035037;28;20030;-59
2021/08/23 07:36:13;;;;;;;4.95;2.20;;;;;;;;;;5036565;28;20021;-59
2021/08/23 07:38:39;;;;;;;4.38;1.90;;;;;;;;;;5034444;28;20159;-60
2021/08/23 07:41:05;;;;;;;84.53;29.55;;;;;;;;;;5047433;28;20025;-59
2021/08/23 07:43:31;;;;;;;43.45;38.85;;;;;;;;;;5039683;28;20030;-59
2021/08/23 07:45:58;;;;;;;4.70;2.07;;;;;;;;;;5035062;28;20114;-59
2021/08/23 07:48:23;;;;;;;5.18;2.03;;;;;;;;;;5036312;28;20036;-62
2021/08/23 07:50:50;;;;;;;4.18;1.95;;;;;;;;;;5041145;28;20033;-59
2021/08/23 07:53:16;;;;;;;4.57;1.90;;;;;;;;;;5035370;28;20515;-58
2021/08/23 07:55:42;;;;;;;6.47;1.87;;;;;;;;;;5035654;28;20036;-59
2021/08/23 07:58:09;;;;;;;3.72;1.67;;;;;;;;;;5034465;28;20030;-59
2021/08/23 08:00:35;;;;;;;2.97;1.35;;;;;;;;;;5037007;28;20032;-59
2021/08/23 08:03:01;;;;;;;4.00;1.83;;;;;;;;;;5035293;28;20144;-59
2021/08/23 08:05:27;;;;;;;3.45;1.65;;;;;;;;;;5034066;28;20022;-58
2021/08/23 08:07:53;;;;;;;4.03;1.65;;;;;;;;;;5035397;28;20386;-58
2021/08/23 08:10:19;;;;;;;3.67;1.50;;;;;;;;;;5040319;28;20117;-58
2021/08/23 08:12:45;;;;;;;5.25;1.55;;;;;;;;;;5045447;28;20108;-58
2021/08/23 08:15:11;;;;;;;3.88;2.08;;;;;;;;;;5036157;28;20032;-59
2021/08/23 08:17:37;;;;;;;4.78;1.70;;;;;;;;;;5033329;28;20036;-58
2021/08/23 08:20:05;;;;;;;4.75;1.90;;;;;;;;;;5037075;28;20093;-59
2021/08/23 08:22:31;;;;;;;;;;;;;;;;;;5039188;28;20025;-59
2021/08/23 08:24:57;;;;;;;5.40;1.90;;;;;;;;;;5033712;28;19944;-59
2021/08/23 08:27:23;;;;;;;3.67;1.80;;;;;;;;;;5035208;28;20376;-59
2021/08/23 08:29:49;;;;;;;5.93;1.90;;;;;;;;;;5033732;28;20523;-59
2021/08/23 08:32:15;;;;;;;3.42;1.63;;;;;;;;;;5035543;28;20392;-59
2021/08/23 08:34:41;;;;;;;4.80;1.92;;;;;;;;;;5035655;28;20026;-59
2021/08/23 08:37:07;;;;;;;3.33;1.50;;;;;;;;;;5033417;28;20052;-58
2021/08/23 08:39:33;;;;;;;5.97;2.00;;;;;;;;;;5035209;28;20029;-58
2021/08/23 08:41:59;;;;;;;4.68;1.80;;;;;;;;;;5049391;28;20431;-59
2021/08/23 08:44:25;;;;;;;5.22;1.80;;;;;;;;;;5033798;28;20083;-60
2021/08/23 08:46:52;;;;;;;3.58;1.60;;;;;;;;;;5034784;28;20036;-59
2021/08/23 08:49:18;;;;;;;4.28;1.80;;;;;;;;;;5035127;28;20072;-59
2021/08/23 08:51:46;;;;;;;2.65;1.42;;;;;;;;;;5041658;28;20033;-58
2021/08/23 08:54:12;;;;;;;5.15;1.92;;;;;;;;;;5035246;28;20534;-59
2021/08/23 08:56:38;;;;;;;5.25;1.90;;;;;;;;;;5032448;28;20045;-59
2021/08/23 08:59:05;;;;;;;5.53;1.83;;;;;;;;;;5034883;28;20462;-60
2021/08/23 09:01:31;;;;;;;4.65;1.77;;;;;;;;;;5035111;28;20057;-59
2021/08/23 09:04:01;;;;;;;4.43;1.75;;;;;;;;;;5033573;28;20504;-59
2021/08/23 09:06:27;;;;;;;3.88;2.08;;;;;;;;;;5034997;28;20025;-59
2021/08/23 09:08:53;;;;;;;2.95;1.33;;;;;;;;;;5033083;28;20537;-59
2021/08/23 09:11:20;;;;;;;3.20;1.45;;;;;;;;;;5046889;28;20094;-59
2021/08/23 09:14:03;;;;;;;4.28;2.00;;;;;;;;;;5036259;28;20083;-59
2021/08/23 09:16:33;;;;;;;4.45;1.80;;;;;;;;;;5033408;28;20038;-59
2021/08/23 09:18:59;;;;;;;4.10;1.75;;;;;;;;;;5034698;28;20084;-67
2021/08/23 09:21:29;;;;;;;8.68;1.88;;;;;;;;;;5041647;28;20489;-68
2021/08/23 09:23:58;;;;;;;3.97;1.67;;;;;;;;;;5032976;28;20442;-67
2021/08/23 09:26:24;;;;;;;4.82;1.50;;;;;;;;;;5032817;28;20033;-66
2021/08/23 09:29:02;;;;;;;4.55;1.98;;;;;;;;;;5034321;28;20033;-67
2021/08/23 09:31:30;;;;;;;3.80;1.90;;;;;;;;;;5035288;28;20033;-67
2021/08/23 09:34:00;;;;;;;4.55;1.92;;;;;;;;;;5033680;28;20029;-66
2021/08/23 09:36:26;;;;;;;4.07;1.70;;;;;;;;;;5034448;28;20029;-67
2021/08/23 09:39:20;;;;;;;3.67;1.60;;;;;;;;;;5032080;28;20022;-67
2021/08/23 09:41:46;;;;;;;6.60;1.77;;;;;;;;;;5045193;28;20073;-67
2021/08/23 09:44:13;;;;;;;4.88;1.80;;;;;;;;;;5031234;28;20117;-68
2021/08/23 09:46:42;;;;;;;3.15;1.40;;;;;;;;;;5033778;28;20112;-67
2021/08/23 09:49:12;;;;;;;4.97;1.83;;;;;;;;;;5033294;28;20108;-64
2021/08/23 09:51:43;;;;;;;3.78;1.48;;;;;;;;;;5027278;28;20508;-63
2021/08/23 09:54:20;;;;;;;3.22;1.30;;;;;;;;;;5025081;28;20030;-64
2021/08/23 09:56:47;;;;;;;4.32;1.60;;;;;;;;;;5027753;28;20037;-63
2021/08/23 09:59:14;;;;;;;5.50;1.52;;;;;;;;;;5033334;28;20104;-63
2021/08/23 10:01:41;;;;;;;3.78;1.77;;;;;;;;;;5031241;28;20026;-64
2021/08/23 10:04:08;;;;;;;4.10;1.77;;;;;;;;;;5031555;28;20021;-64
2021/08/23 10:06:34;;;;;;;4.43;1.58;;;;;;;;;;5034758;28;20339;-63
2021/08/23 10:09:01;;;;;;;10.35;2.10;;;;;;;;;;5030953;28;20029;-63
2021/08/23 10:11:28;;;;;;;3.95;1.70;;;;;;;;;;5032993;28;20038;-64
2021/08/23 10:13:54;;;;;;;4.75;1.98;;;;;;;;;;5031871;28;20034;-63
2021/08/23 10:16:20;;;;;;;4.22;1.73;;;;;;;;;;5030842;28;20033;-63
2021/08/23 10:18:46;;;;;;;4.05;1.65;;;;;;;;;;5031431;28;20024;-63
2021/08/23 10:21:12;;;;;;;4.57;1.92;;;;;;;;;;5037694;28;20087;-63
2021/08/23 10:23:38;;;;;;;4.78;1.90;;;;;;;;;;5030919;28;20026;-64
2021/08/23 10:26:04;;;;;;;4.15;1.58;;;;;;;;;;5032039;28;20052;-64
2021/08/23 10:28:38;;;;;;;3.30;1.30;;;;;;;;;;5030837;28;20037;-64
2021/08/23 10:31:08;;;;;;;4.82;1.85;;;;;;;;;;5032775;28;20033;-63
2021/08/23 10:33:36;;;;;;;4.18;1.50;;;;;;;;;;5031952;28;20021;-64
2021/08/23 10:36:02;;;;;;;5.50;1.48;;;;;;;;;;5031726;28;20032;-64
2021/08/23 10:38:28;;;;;;;4.78;1.55;;;;;;;;;;5030218;28;20026;-64
2021/08/23 10:41:08;;;;;;;5.05;1.98;;;;;;;;;;5033689;28;20022;-64
2021/08/23 10:43:46;;;;;;;4.18;1.60;;;;;;;;;;5030184;28;20116;-63
2021/08/23 10:46:22;;;;;;;7.22;1.80;;;;;;;;;;5032232;28;20026;-63
2021/08/23 10:48:48;;;;;;;5.63;1.75;;;;;;;;;;5032700;28;20073;-63
2021/08/23 10:51:26;;;;;;;3.85;1.80;;;;;;;;;;5037228;28;20033;-65
2021/08/23 10:53:51;;;;;;;;;;;;;;;;;;5035936;28;20029;-63
2021/08/23 10:56:18;;;;;;;4.65;1.50;;;;;;;;;;5035021;28;20427;-64
2021/08/23 10:58:47;;;;;;;4.70;1.90;;;;;;;;;;5036704;28;20436;-65
2021/08/23 11:01:17;;;;;;;2.95;1.50;;;;;;;;;;5043681;28;20625;-62
2021/08/23 11:03:43;;;;;;;3.17;1.40;;;;;;;;;;5035269;28;20421;-69
2021/08/23 11:06:09;;;;;;;4.30;1.83;;;;;;;;;;5035754;28;20029;-67
2021/08/23 11:08:35;;;;;;;4.45;1.88;;;;;;;;;;5043366;28;20024;-65
2021/08/23 11:11:14;;;;;;;4.47;1.85;;;;;;;;;;5023924;28;20497;-66
2021/08/23 11:13:43;;;;;;;3.33;1.40;;;;;;;;;;5034373;28;20021;-68
2021/08/23 11:16:10;;;;;;;4.38;1.63;;;;;;;;;;5037000;28;20029;-67
2021/08/23 11:18:42;;;;;;;5.28;1.73;;;;;;;;;;5036235;28;20087;-67
2021/08/23 11:21:13;;;;;;;3.75;1.40;;;;;;;;;;5019065;28;20518;-68
2021/08/23 11:23:39;;;;;;;3.45;1.55;;;;;;;;;;5036438;28;20083;-68
2021/08/23 11:26:05;;;;;;;6.28;2.22;;;;;;;;;;5035068;28;20057;-67
2021/08/23 11:28:31;;;;;;;7.15;1.90;;;;;;;;;;5035064;28;20029;-67
2021/08/23 11:30:58;;;;;;;4.07;1.55;;;;;;;;;;5032902;28;20030;-67
2021/08/23 11:33:34;;;;;;;4.25;1.80;;;;;;;;;;5034828;28;20041;-67
2021/08/23 11:36:00;;;;;;;3.65;1.40;;;;;;;;;;5035720;28;20494;-66
2021/08/23 11:38:31;;;;;;;3.13;1.50;;;;;;;;;;5035172;28;20476;-66
2021/08/23 11:40:57;;;;;;;3.58;1.60;;;;;;;;;;5024507;28;20334;-67
2021/08/23 11:43:26;;;;;;;5.00;1.70;;;;;;;;;;5030176;28;20428;-66
2021/08/23 11:45:53;;;;;;;4.88;1.80;;;;;;;;;;5036344;28;20022;-67
2021/08/23 11:48:19;;;;;;;4.78;1.75;;;;;;;;;;5045439;28;20017;-66
2021/08/23 11:50:45;;;;;;;5.13;1.60;;;;;;;;;;5026859;28;20518;-67
2021/08/23 11:53:12;;;;;;;5.95;1.70;;;;;;;;;;5035876;28;20063;-68
2021/08/23 11:55:45;;;;;;;3.47;1.38;;;;;;;;;;5038521;28;20473;-68
2021/08/23 11:58:14;;;;;;;3.97;1.50;;;;;;;;;;5036585;28;20025;-69
2021/08/23 12:00:41;;;;;;;3.85;1.63;;;;;;;;;;5033040;28;20484;-74
2021/08/23 12:03:15;;;;;;;5.22;1.73;;;;;;;;;;5037128;28;20108;-65
2021/08/23 12:05:42;;;;;;;4.70;1.92;;;;;;;;;;5035751;28;20061;-71
2021/08/23 12:08:09;;;;;;;3.83;1.55;;;;;;;;;;5036136;28;20029;-69
2021/08/23 12:10:36;;;;;;;3.08;1.30;;;;;;;;;;5026959;28;20092;-70
2021/08/23 12:13:05;;;;;;;5.15;1.60;;;;;;;;;;5034816;28;20056;-70
2021/08/23 12:15:31;;;;;;;3.28;1.45;;;;;;;;;;5046235;28;20017;-71
2021/08/23 12:18:07;;;;;;;4.30;1.50;;;;;;;;;;5034335;28;20556;-69
2021/08/23 12:20:33;;;;;;;4.03;1.60;;;;;;;;;;5026582;28;20551;-69
2021/08/23 12:23:02;;;;;;;10.02;2.17;;;;;;;;;;5035961;28;20033;-69
2021/08/23 12:25:28;;;;;;;4.22;1.70;;;;;;;;;;5037931;28;20077;-69
2021/08/23 12:27:54;;;;;;;4.00;1.52;;;;;;;;;;5035225;28;20092;-69
2021/08/23 12:30:27;;;;;;;3.78;1.70;;;;;;;;;;5031921;28;20041;-69
2021/08/23 12:32:53;;;;;;;5.10;2.00;;;;;;;;;;5033969;28;20491;-69
2021/08/23 12:35:26;;;;;;;5.85;1.80;;;;;;;;;;5034364;28;20033;-68
2021/08/23 12:37:52;;;;;;;3.20;1.33;;;;;;;;;;5033280;28;20036;-68
2021/08/23 12:40:18;;;;;;;3.85;1.48;;;;;;;;;;5033884;28;20419;-69
2021/08/23 12:42:44;;;;;;;4.07;1.80;;;;;;;;;;5033584;28;20112;-69
2021/08/23 12:45:10;;;;;;;3.50;1.50;;;;;;;;;;5048918;28;20025;-69
2021/08/23 12:47:36;;;;;;;3.88;1.90;;;;;;;;;;5031565;28;20083;-69
2021/08/23 12:50:03;;;;;;;3.80;1.70;;;;;;;;;;5030293;28;20037;-69
2021/08/23 12:52:29;;;;;;;4.57;1.75;;;;;;;;;;5030835;28;20030;-69
2021/08/23 12:54:55;;;;;;;4.53;2.03;;;;;;;;;;5032915;28;20033;-69
2021/08/23 12:57:23;;;;;;;4.55;2.13;;;;;;;;;;5035098;28;20473;-69
2021/08/23 12:59:49;;;;;;;4.10;1.65;;;;;;;;;;5039163;28;20103;-69
2021/08/23 13:02:16;;;;;;;4.82;2.08;;;;;;;;;;5030377;28;20115;-69
2021/08/23 13:04:42;;;;;;;6.70;2.13;;;;;;;;;;5033194;28;20021;-69
2021/08/23 13:07:08;;;;;;;4.68;1.77;;;;;;;;;;5034624;28;20410;-69
2021/08/23 13:09:35;;;;;;;4.32;1.73;;;;;;;;;;5034060;28;20099;-69
2021/08/23 13:12:01;;;;;;;3.53;1.70;;;;;;;;;;5017991;28;20032;-69
2021/08/23 13:14:27;;;;;;;4.75;1.58;;;;;;;;;;5032866;28;20025;-71
2021/08/23 13:16:53;;;;;;;4.20;1.70;;;;;;;;;;5032617;28;20436;-69
2021/08/23 13:19:18;;;;;;;3.50;1.73;;;;;;;;;;5033041;28;20060;-69
2021/08/23 13:21:44;;;;;;;3.78;1.50;;;;;;;;;;5025923;28;20025;-69
2021/08/23 13:24:10;;;;;;;4.63;2.20;;;;;;;;;;5033634;28;20033;-69
2021/08/23 13:26:37;;;;;;;5.50;2.08;;;;;;;;;;5032180;28;20052;-69
2021/08/23 13:29:03;;;;;;;4.57;1.67;;;;;;;;;;5031937;28;20038;-69
2021/08/23 13:31:29;;;;;;;4.55;1.77;;;;;;;;;;5030561;28;20754;-69
2021/08/23 13:33:55;;;;;;;4.97;1.90;;;;;;;;;;5032438;28;20108;-69
2021/08/23 13:36:21;;;;;;;3.28;1.55;;;;;;;;;;5032939;28;20109;-70
2021/08/23 13:38:48;;;;;;;4.93;1.90;;;;;;;;;;5028570;28;20120;-69
2021/08/23 13:41:16;;;;;;;6.38;1.27;;;;;;;;;;5020249;28;20629;-68
2021/08/23 13:43:45;;;;;;;3.60;1.30;;;;;;;;;;5033625;28;20057;-69
2021/08/23 13:46:11;;;;;;;2.65;1.00;;;;;;;;;;5033276;28;20511;-69
2021/08/23 13:48:37;;;;;;;4.13;1.55;;;;;;;;;;5033003;28;20038;-69
2021/08/23 13:51:03;;;;;;;2.55;1.30;;;;;;;;;;5016670;28;20037;-69
2021/08/23 13:53:29;;;;;;;4.78;1.58;;;;;;;;;;5021323;28;20124;-69
2021/08/23 13:55:55;;;;;;;3.15;1.60;;;;;;;;;;5030265;28;20081;-68
2021/08/23 13:58:21;;;;;;;5.38;2.20;;;;;;;;;;5036150;28;20021;-69
2021/08/23 14:00:48;;;;;;;3.97;1.92;;;;;;;;;;5039665;28;20032;-68
2021/08/23 14:03:14;;;;;;;3.33;1.65;;;;;;;;;;5030404;28;20377;-69
2021/08/23 14:05:40;;;;;;;3.30;1.60;;;;;;;;;;5028226;28;20033;-69
2021/08/23 14:08:06;;;;;;;4.00;1.88;;;;;;;;;;5043908;28;20032;-69
2021/08/23 14:10:33;;;;;;;3.97;1.85;;;;;;;;;;5029822;28;20165;-69
2021/08/23 14:13:00;;;;;;;6.47;2.13;;;;;;;;;;5028185;28;20571;-69
2021/08/23 14:15:26;;;;;;;4.75;1.70;;;;;;;;;;5030948;28;20041;-68
2021/08/23 14:17:52;;;;;;;5.00;1.75;;;;;;;;;;5018885;28;20026;-68
2021/08/23 14:20:18;;;;;;;4.60;1.85;;;;;;;;;;5028357;28;20033;-68
2021/08/23 14:22:44;;;;;;;4.55;2.25;;;;;;;;;;5034043;28;20026;-68
2021/08/23 14:25:12;;;;;;;5.38;1.80;;;;;;;;;;5036996;28;20045;-68
2021/08/23 14:27:38;;;;;;;3.47;1.70;;;;;;;;;;5037394;28;20028;-67
2021/08/23 14:30:04;;;;;;;5.03;1.80;;;;;;;;;;5047085;28;20046;-69
2021/08/23 14:32:30;;;;;;;5.75;2.25;;;;;;;;;;5035750;28;20049;-69
2021/08/23 14:34:56;;;;;;;4.75;1.70;;;;;;;;;;5035557;28;20449;-69
2021/08/23 14:37:22;;;;;;;4.30;1.60;;;;;;;;;;5035688;28;20035;-69